Time;durP1;ratioP1;P1;durP2;ratioP2;P2;SDS_P1;SDS_P2;PMS_P1;PMS_P2;Temp;Humidity;BMP_temperature;BMP_pressure;BME280_temperature;BME280_humidity;BME280_pressure;Samples;Min_cycle;Max_cycle;Signal;HPM_P1;HPM_P2
2023/09/29 00:01:32;;;;;;;28.13;4.57;;;;;;;20.84;46.71;100785.78;5050974;28;20032;-76
2023/09/29 00:03:58;;;;;;;23.50;4.53;;;;;;;21.02;47.23;100827.28;5051369;28;20029;-77
2023/09/29 00:06:23;;;;;;;28.02;4.50;;;;;;;20.63;47.63;100773.72;5051379;28;20492;-76
2023/09/29 00:08:48;;;;;;;31.60;5.00;;;;;;;20.80;47.94;100814.53;5051338;28;20036;-76
2023/09/29 00:11:14;;;;;;;23.25;4.53;;;;;;;20.76;48.36;100810.47;5032250;28;20045;-76
2023/09/29 00:13:40;;;;;;;23.60;5.85;;;;;;;20.59;48.81;100791.50;5051446;28;20044;-75
2023/09/29 00:16:05;;;;;;;15.93;4.45;;;;;;;20.77;48.89;100806.69;5051171;28;20033;-76
2023/09/29 00:18:31;;;;;;;18.95;4.15;;;;;;;20.80;49.13;100811.78;5051138;28;20029;-77
2023/09/29 00:20:57;;;;;;;17.88;4.22;;;;;;;20.82;49.44;100807.00;5031973;28;20049;-77
2023/09/29 00:23:22;;;;;;;12.68;4.85;;;;;;;20.88;49.60;100809.00;5050725;28;20064;-76
2023/09/29 00:25:48;;;;;;;36.08;4.97;;;;;;;20.97;49.63;100813.34;5050948;28;20390;-77
2023/09/29 00:28:14;;;;;;;28.45;5.63;;;;;;;21.01;49.56;100807.28;5050934;28;20044;-78
2023/09/29 00:30:39;;;;;;;35.03;5.57;;;;;;;21.00;49.59;100804.75;5050770;28;20057;-77
2023/09/29 00:33:05;;;;;;;29.92;6.35;;;;;;;21.01;49.77;100803.69;5049633;28;20033;-77
2023/09/29 00:35:33;;;;;;;21.50;5.35;;;;;;;21.02;49.81;100794.47;5050666;28;20028;-77
2023/09/29 00:38:00;;;;;;;15.95;4.85;;;;;;;20.93;49.97;100773.72;5050823;28;20040;-77
2023/09/29 00:40:26;;;;;;;20.40;4.65;;;;;;;21.06;50.09;100793.06;5050760;28;20028;-78
2023/09/29 00:42:52;;;;;;;23.80;5.00;;;;;;;20.98;50.52;100794.00;5050304;28;20106;-77
2023/09/29 00:45:22;;;;;;;30.70;6.68;;;;;;;21.00;50.83;100788.34;5050846;28;20055;-76
2023/09/29 00:47:50;;;;;;;22.50;5.63;;;;;;;20.99;51.38;100794.84;5050111;28;20025;-76
2023/09/29 00:50:18;;;;;;;24.92;5.00;;;;;;;20.98;51.81;100788.53;5050309;28;20032;-77
2023/09/29 00:52:46;;;;;;;27.05;5.45;;;;;;;20.98;52.26;100791.25;5049849;28;20443;-77
2023/09/29 00:55:15;;;;;;;24.20;5.72;;;;;;;20.93;52.73;100790.97;5050633;28;20521;-76
2023/09/29 00:57:42;;;;;;;25.48;5.00;;;;;;;20.95;53.11;100793.50;5050507;28;20063;-77
2023/09/29 01:00:14;;;;;;;22.00;6.63;;;;;;;20.97;53.35;100788.72;5050596;28;20024;-76
2023/09/29 01:02:43;;;;;;;29.17;5.88;;;;;;;20.97;53.60;100781.38;5050788;28;20029;-76
2023/09/29 01:05:11;;;;;;;23.77;4.80;;;;;;;21.00;53.35;100789.19;5049805;28;20477;-76
2023/09/29 01:07:37;;;;;;;18.65;4.78;;;;;;;20.93;53.70;100790.97;5050213;28;20029;-76
2023/09/29 01:10:03;;;;;;;16.38;6.25;;;;;;;20.92;53.81;100793.88;5050301;28;20017;-78
2023/09/29 01:12:28;;;;;;;24.45;5.38;;;;;;;20.98;53.82;100794.00;5050229;28;20412;-76
2023/09/29 01:14:54;;;;;;;25.27;5.63;;;;;;;20.90;53.74;100790.50;5050160;28;20036;-76
2023/09/29 01:17:20;;;;;;;34.15;6.60;;;;;;;20.89;53.79;100789.66;5049763;28;20040;-76
2023/09/29 01:19:45;;;;;;;22.42;5.90;;;;;;;20.40;53.72;100731.91;5049612;28;20029;-76
2023/09/29 01:22:11;;;;;;;19.17;5.38;;;;;;;20.72;54.14;100787.28;5049938;28;20033;-75
2023/09/29 01:24:36;;;;;;;26.95;5.63;;;;;;;20.70;54.21;100789.34;5048841;28;20111;-77
2023/09/29 01:27:02;;;;;;;21.05;4.55;;;;;;;20.54;54.75;100765.78;5049932;28;20029;-77
2023/09/29 01:29:27;;;;;;;27.83;5.97;;;;;;;20.63;55.39;100784.63;5050004;28;20454;-77
2023/09/29 01:31:52;;;;;;;23.30;4.90;;;;;;;20.41;55.58;100747.28;5049469;28;20116;-78
2023/09/29 01:34:18;;;;;;;31.63;6.72;;;;;;;20.63;56.51;100795.56;5050048;28;20457;-78
2023/09/29 01:36:44;;;;;;;21.42;5.07;;;;;;;20.51;56.67;100761.53;5049570;28;20029;-78
2023/09/29 01:39:11;;;;;;;20.88;4.97;;;;;;;20.58;56.73;100784.31;5049887;28;20033;-77
2023/09/29 01:41:36;;;;;;;16.90;5.80;;;;;;;20.67;57.04;100795.19;5049414;28;20044;-77
2023/09/29 01:44:02;;;;;;;27.05;5.53;;;;;;;20.64;57.39;100799.97;5049495;28;20029;-76
2023/09/29 01:46:29;;;;;;;21.25;5.70;;;;;;;20.68;57.48;100805.94;5049496;28;20021;-77
2023/09/29 01:48:54;;;;;;;28.33;5.95;;;;;;;20.61;57.86;100803.09;5049142;28;20017;-77
2023/09/29 01:51:20;;;;;;;34.40;6.22;;;;;;;20.60;58.18;100800.56;5049574;28;20032;-75
2023/09/29 01:53:46;;;;;;;25.48;4.80;;;;;;;20.67;58.24;100806.13;5049407;28;20024;-77
2023/09/29 01:56:12;;;;;;;22.70;6.10;;;;;;;20.62;58.64;100815.72;5031709;28;20032;-77
2023/09/29 01:58:37;;;;;;;26.50;6.05;;;;;;;20.63;58.69;100816.59;5049259;28;20029;-75
2023/09/29 02:01:02;;;;;;;23.33;5.72;;;;;;;20.49;58.87;100810.03;5049507;28;20029;-75
2023/09/29 02:03:28;;;;;;;23.52;5.78;;;;;;;20.27;59.38;100767.22;5048942;28;20035;-77
2023/09/29 02:05:55;;;;;;;14.50;5.05;;;;;;;20.43;59.86;100805.31;5049476;28;20378;-75
2023/09/29 02:08:21;;;;;;;20.63;5.70;;;;;;;20.38;59.80;100802.28;4997684;28;20077;-77
2023/09/29 02:10:49;;;;;;;21.05;4.72;;;;;;;20.25;60.47;100791.09;5049518;28;20103;-76
2023/09/29 02:13:15;;;;;;;23.60;5.50;;;;;;;20.33;60.78;100804.72;5048735;28;20029;-77
2023/09/29 02:15:41;;;;;;;24.83;6.90;;;;;;;20.45;60.96;100816.94;5049099;28;20508;-78
2023/09/29 02:18:09;;;;;;;31.60;6.53;;;;;;;20.48;61.25;100818.44;5048813;28;20024;-76
2023/09/29 02:20:38;;;;;;;35.33;5.72;;;;;;;20.43;61.35;100802.56;5048221;28;20029;-77
2023/09/29 02:23:05;;;;;;;33.55;6.05;;;;;;;20.47;61.76;100814.84;5049144;28;20177;-76
2023/09/29 02:25:32;;;;;;;27.60;6.55;;;;;;;20.54;61.93;100818.53;5049061;28;20053;-76
2023/09/29 02:27:59;;;;;;;27.45;6.82;;;;;;;20.45;61.93;100811.47;5049228;28;20021;-76
2023/09/29 02:30:26;;;;;;;26.60;6.78;;;;;;;20.33;62.15;100793.81;5049256;28;20078;-77
2023/09/29 02:32:52;;;;;;;24.85;5.93;;;;;;;20.47;62.42;100828.50;5013956;28;20033;-76
2023/09/29 02:35:18;;;;;;;29.27;6.15;;;;;;;20.40;62.73;100838.47;5049435;28;20036;-75
2023/09/29 02:37:43;;;;;;;22.73;6.85;;;;;;;20.34;63.00;100836.47;5049348;28;20021;-77
2023/09/29 02:40:13;;;;;;;23.27;6.65;;;;;;;20.37;63.32;100830.63;5049164;28;20031;-76
2023/09/29 02:42:39;;;;;;;40.58;7.43;;;;;;;20.32;63.68;100829.47;5049033;28;20494;-76
2023/09/29 02:45:08;;;;;;;28.17;6.07;;;;;;;20.25;63.99;100823.88;5048770;28;20492;-76
2023/09/29 02:47:35;;;;;;;26.40;7.10;;;;;;;20.27;63.93;100821.84;5049063;28;20031;-76
2023/09/29 02:50:00;;;;;;;36.53;6.57;;;;;;;20.24;64.19;100824.91;5048933;28;20389;-77
2023/09/29 02:52:29;;;;;;;25.23;6.05;;;;;;;20.18;65.08;100820.19;5048687;28;20115;-77
2023/09/29 02:54:55;;;;;;;19.30;7.18;;;;;;;20.09;65.54;100813.91;5048762;28;20048;-76
2023/09/29 02:57:22;;;;;;;20.27;6.07;;;;;;;19.74;65.82;100759.91;5052542;28;20032;-76
2023/09/29 02:59:47;;;;;;;36.05;6.57;;;;;;;20.15;65.95;100827.88;5052421;28;20123;-77
2023/09/29 03:02:13;;;;;;;25.58;6.78;;;;;;;20.03;65.92;100821.97;5052095;28;20103;-77
2023/09/29 03:04:39;;;;;;;18.65;5.88;;;;;;;19.95;66.29;100825.63;5052708;28;20538;-78
2023/09/29 03:07:09;;;;;;;31.98;7.65;;;;;;;19.76;67.01;100795.19;5052187;28;20214;-77
2023/09/29 03:09:35;;;;;;;32.00;6.55;;;;;;;19.93;66.95;100818.66;5052822;28;20111;-76
2023/09/29 03:12:01;;;;;;;16.85;6.10;;;;;;;19.78;67.25;100798.63;5052250;28;20163;-78
2023/09/29 03:14:26;;;;;;;29.02;7.53;;;;;;;19.94;67.89;100825.78;5052082;28;20090;-78
2023/09/29 03:16:53;;;;;;;26.13;7.18;;;;;;;19.94;68.43;100842.16;5052386;28;20029;-76
2023/09/29 03:19:20;;;;;;;22.15;6.93;;;;;;;19.83;69.00;100853.50;5052136;28;20035;-76
2023/09/29 03:21:45;;;;;;;38.10;8.00;;;;;;;19.83;69.38;100846.19;5052304;28;20029;-77
2023/09/29 03:24:10;;;;;;;39.97;8.40;;;;;;;19.84;69.59;100844.31;5051892;28;20466;-77
2023/09/29 03:26:36;;;;;;;37.90;10.57;;;;;;;19.96;69.76;100857.38;5051833;28;20025;-76
2023/09/29 03:29:01;;;;;;;29.20;9.27;;;;;;;19.95;70.24;100850.19;5051887;28;20135;-77
2023/09/29 03:31:27;;;;;;;41.88;9.02;;;;;;;20.04;70.51;100848.25;5000323;28;20558;-77
2023/09/29 03:33:52;;;;;;;40.08;7.93;;;;;;;20.08;70.70;100849.59;5051726;28;20493;-76
2023/09/29 03:36:21;;;;;;;26.25;7.30;;;;;;;19.99;70.30;100820.66;5051997;28;20029;-77
2023/09/29 03:38:47;;;;;;;20.23;7.35;;;;;;;20.04;70.43;100812.75;5051692;28;20033;-77
2023/09/29 03:41:13;;;;;;;27.40;7.40;;;;;;;20.25;70.52;100851.19;5051678;28;20025;-76
2023/09/29 03:43:39;;;;;;;31.92;7.88;;;;;;;20.34;70.46;100850.13;5051687;28;20102;-77
2023/09/29 03:46:04;;;;;;;28.25;7.40;;;;;;;20.16;70.87;100802.25;5051486;28;20479;-75
2023/09/29 03:48:30;;;;;;;46.45;8.80;;;;;;;20.40;70.80;100843.06;5051913;28;20037;-77
2023/09/29 03:50:57;;;;;;;27.73;9.02;;;;;;;20.38;70.90;100840.53;5051494;28;20025;-76
2023/09/29 03:53:24;;;;;;;32.25;8.35;;;;;;;20.39;71.47;100834.06;5050977;28;20512;-77
2023/09/29 03:55:52;;;;;;;50.20;10.25;;;;;;;20.39;71.73;100838.66;5051043;28;20041;-76
2023/09/29 03:58:18;;;;;;;34.72;9.15;;;;;;;20.31;72.33;100827.78;5050953;28;20036;-76
2023/09/29 04:00:43;;;;;;;40.10;8.07;;;;;;;20.30;72.70;100829.69;5051387;28;20386;-77
2023/09/29 04:03:09;;;;;;;26.42;8.38;;;;;;;20.19;73.23;100829.19;5050926;28;20110;-78
2023/09/29 04:05:34;;;;;;;37.85;9.32;;;;;;;20.28;73.13;100826.25;5050950;28;20059;-76
2023/09/29 04:08:01;;;;;;;38.60;8.27;;;;;;;20.19;73.37;100823.75;5030549;28;20041;-77
2023/09/29 04:10:27;;;;;;;42.42;10.00;;;;;;;20.02;73.32;100803.91;5050597;28;20094;-75
2023/09/29 04:12:53;;;;;;;32.22;8.57;;;;;;;20.15;73.28;100834.19;4998470;28;20045;-77
2023/09/29 04:15:18;;;;;;;36.53;8.65;;;;;;;19.89;73.54;100798.19;5050951;28;20378;-77
2023/09/29 04:17:44;;;;;;;43.22;11.15;;;;;;;20.04;73.59;100823.69;5009220;28;20529;-77
2023/09/29 04:20:10;;;;;;;30.70;8.95;;;;;;;20.02;73.96;100831.22;5009433;28;20141;-78
2023/09/29 04:22:36;;;;;;;31.67;8.70;;;;;;;19.96;74.27;100841.00;5011046;28;20041;-77
2023/09/29 04:25:02;;;;;;;32.10;9.02;;;;;;;19.95;74.26;100827.50;5011447;28;20108;-77
2023/09/29 04:27:27;;;;;;;33.75;9.25;;;;;;;19.95;74.64;100838.41;5018354;28;20072;-77
2023/09/29 04:29:53;;;;;;;31.25;8.52;;;;;;;19.94;74.76;100837.56;5034538;28;20034;-78
2023/09/29 04:32:18;;;;;;;42.40;8.95;;;;;;;19.95;74.80;100838.41;5031980;28;20046;-77
2023/09/29 04:34:44;;;;;;;40.05;9.85;;;;;;;19.82;74.66;100805.38;5031815;28;20030;-77
2023/09/29 04:37:10;;;;;;;38.65;11.90;;;;;;;20.01;74.57;100843.16;5021762;28;20049;-77
2023/09/29 04:39:35;;;;;;;57.45;9.32;;;;;;;20.09;74.04;100846.69;5011623;28;20064;-77
2023/09/29 04:42:03;;;;;;;26.60;8.00;;;;;;;20.12;73.29;100850.94;5012109;28;20541;-77
2023/09/29 04:44:28;;;;;;;54.10;10.00;;;;;;;20.12;72.49;100850.94;5011548;28;20040;-77
2023/09/29 04:46:53;;;;;;;35.03;7.82;;;;;;;20.08;72.53;100849.59;5011213;28;20030;-76
2023/09/29 04:49:19;;;;;;;42.30;10.55;;;;;;;20.16;72.45;100851.41;5023650;28;20067;-77
2023/09/29 04:51:45;;;;;;;28.73;8.80;;;;;;;20.10;72.20;100842.06;5050506;28;20043;-76
2023/09/29 04:54:10;;;;;;;56.22;10.57;;;;;;;20.01;72.20;100834.97;5051110;28;20029;-77
2023/09/29 04:56:36;;;;;;;36.42;8.55;;;;;;;20.19;72.47;100853.78;5050524;28;20036;-77
2023/09/29 04:59:01;;;;;;;32.92;8.27;;;;;;;20.12;72.42;100855.56;5051119;28;20021;-77
2023/09/29 05:01:27;;;;;;;36.88;9.30;;;;;;;20.18;72.61;100858.41;5050130;28;20499;-77
2023/09/29 05:03:53;;;;;;;40.85;7.35;;;;;;;20.04;72.84;100838.19;5050413;28;20021;-78
2023/09/29 05:06:18;;;;;;;34.92;8.35;;;;;;;20.23;72.52;100858.72;5014679;28;20484;-79
2023/09/29 05:08:44;;;;;;;36.63;9.25;;;;;;;20.07;72.66;100831.50;5049235;28;20028;-81
2023/09/29 05:11:21;;;;;;;21.83;7.53;;;;;;;20.28;72.56;100861.78;5049761;28;20040;-76
2023/09/29 05:13:46;;;;;;;42.30;8.40;;;;;;;20.30;72.50;100870.66;5014338;28;20189;-78
2023/09/29 05:16:12;;;;;;;38.17;10.23;;;;;;;20.32;73.07;100862.28;5048926;28;20025;-76
2023/09/29 05:18:37;;;;;;;33.67;8.93;;;;;;;20.32;73.37;100868.59;5049358;28;20029;-77
2023/09/29 05:21:03;;;;;;;40.67;9.18;;;;;;;20.41;73.42;100867.50;5049172;28;20464;-76
2023/09/29 05:23:28;;;;;;;47.83;8.65;;;;;;;20.49;73.01;100863.81;5048717;28;20036;-77
2023/09/29 05:25:53;;;;;;;32.13;8.05;;;;;;;20.56;72.69;100876.59;5049727;28;20467;-77
2023/09/29 05:28:19;;;;;;;50.75;9.35;;;;;;;20.57;72.94;100872.84;5049352;28;20086;-76
2023/09/29 05:30:53;;;;;;;36.05;8.32;;;;;;;20.68;72.82;100873.41;5049075;28;20029;-77
2023/09/29 05:33:19;;;;;;;45.63;9.05;;;;;;;20.75;72.58;100877.97;5049581;28;20032;-76
2023/09/29 05:35:46;;;;;;;46.83;8.90;;;;;;;20.79;72.44;100876.59;5049233;28;20086;-76
2023/09/29 05:38:11;;;;;;;22.13;8.45;;;;;;;20.84;72.34;100862.34;5049377;28;20036;-76
2023/09/29 05:40:38;;;;;;;31.95;9.15;;;;;;;21.10;72.26;100890.13;5049457;28;20033;-77
2023/09/29 05:43:04;;;;;;;29.83;9.05;;;;;;;21.19;71.87;100882.72;5048427;28;20075;-76
2023/09/29 05:45:30;;;;;;;33.25;8.60;;;;;;;21.28;71.47;100887.91;5049278;28;20025;-77
2023/09/29 05:47:56;;;;;;;42.13;8.80;;;;;;;21.38;71.08;100888.47;5049750;28;20162;-76
2023/09/29 05:50:21;;;;;;;37.67;8.20;;;;;;;21.41;70.96;100888.09;5048933;28;20045;-76
2023/09/29 05:52:48;;;;;;;28.30;8.45;;;;;;;21.53;70.00;100889.31;5030157;28;20037;-76
2023/09/29 05:55:13;;;;;;;41.10;8.82;;;;;;;21.51;69.03;100899.59;5049134;28;20485;-76
2023/09/29 05:57:39;;;;;;;35.53;10.15;;;;;;;21.59;69.11;100896.75;5048869;28;20025;-77
2023/09/29 06:00:05;;;;;;;45.83;9.07;;;;;;;21.66;68.63;100891.38;5049113;28;20032;-77
2023/09/29 06:02:31;;;;;;;29.58;9.68;;;;;;;21.76;68.45;100897.41;5048931;28;20040;-78
2023/09/29 06:04:57;;;;;;;42.95;8.00;;;;;;;21.82;67.68;100890.31;5048759;28;20472;-77
2023/09/29 06:07:22;;;;;;;34.40;9.02;;;;;;;21.76;67.48;100872.78;5049243;28;20120;-77
2023/09/29 06:09:48;;;;;;;45.38;8.77;;;;;;;21.98;67.17;100901.09;5049372;28;20036;-77
2023/09/29 06:12:13;;;;;;;36.00;8.90;;;;;;;22.00;67.17;100904.50;5049388;28;20106;-78
2023/09/29 06:14:39;;;;;;;28.55;8.35;;;;;;;21.86;67.41;100870.59;5048873;28;20458;-78
2023/09/29 06:17:04;;;;;;;107.40;18.23;;;;;;;22.17;67.37;100904.06;5048829;28;20521;-76
2023/09/29 06:19:30;;;;;;;91.80;14.93;;;;;;;22.26;67.41;100902.06;5049097;28;20036;-78
2023/09/29 06:21:56;;;;;;;41.60;8.55;;;;;;;22.37;67.27;100904.28;5048900;28;20040;-77
2023/09/29 06:24:21;;;;;;;38.20;9.80;;;;;;;22.35;67.25;100903.66;5048865;28;20033;-77
2023/09/29 06:26:46;;;;;;;41.92;10.60;;;;;;;22.21;67.24;100882.59;5048950;28;20433;-77
2023/09/29 06:29:12;;;;;;;50.63;10.50;;;;;;;22.41;66.92;100885.56;5048439;28;20029;-77
2023/09/29 06:31:38;;;;;;;26.88;8.07;;;;;;;22.53;67.13;100890.34;5051825;28;20029;-77
2023/09/29 06:34:04;;;;;;;31.90;9.10;;;;;;;22.70;67.03;100901.91;5052663;28;20029;-77
2023/09/29 06:36:29;;;;;;;34.58;8.57;;;;;;;22.77;66.14;100897.34;5016684;28;20036;-77
2023/09/29 06:38:56;;;;;;;48.40;10.10;;;;;;;22.89;65.61;100895.75;5052856;28;20059;-77
2023/09/29 06:41:23;;;;;;;40.92;8.63;;;;;;;23.06;64.61;100901.78;5052614;28;20040;-77
2023/09/29 06:43:49;;;;;;;35.90;8.85;;;;;;;23.13;64.69;100906.28;5052601;28;20050;-77
2023/09/29 06:46:14;;;;;;;28.67;9.30;;;;;;;23.20;64.24;100909.09;5052741;28;20174;-77
2023/09/29 06:48:40;;;;;;;50.63;10.55;;;;;;;23.06;64.35;100877.94;5052321;28;20033;-77
2023/09/29 06:51:07;;;;;;;33.72;9.18;;;;;;;23.20;64.27;100881.66;5052313;28;20246;-77
2023/09/29 06:53:33;;;;;;;30.55;10.30;;;;;;;23.39;64.09;100897.44;5052144;28;20546;-76
2023/09/29 06:55:58;;;;;;;39.65;9.18;;;;;;;23.37;63.69;100882.16;5052611;28;20024;-78
2023/09/29 06:58:24;;;;;;;47.05;14.20;;;;;;;23.53;63.23;100892.84;5016778;28;20056;-77
2023/09/29 07:00:51;;;;;;;28.48;8.85;;;;;;;23.61;63.09;100898.19;5051831;28;20143;-76
2023/09/29 07:03:17;;;;;;;35.05;8.18;;;;;;;23.66;63.31;100899.28;5051682;28;20186;-76
2023/09/29 07:05:43;;;;;;;49.58;10.98;;;;;;;23.78;63.06;100897.66;5052511;28;20037;-77
2023/09/29 07:08:08;;;;;;;23.73;9.77;;;;;;;23.88;63.01;100896.44;5051820;28;20044;-76
2023/09/29 07:10:34;;;;;;;37.13;13.88;;;;;;;23.90;63.57;100891.56;5052060;28;20029;-77
2023/09/29 07:13:00;;;;;;;43.60;10.88;;;;;;;24.05;63.60;100895.84;5052040;28;20033;-77
2023/09/29 07:15:26;;;;;;;44.17;10.20;;;;;;;23.99;63.44;100882.09;5051742;28;20175;-76
2023/09/29 07:17:51;;;;;;;26.13;10.40;;;;;;;24.13;63.37;100895.69;5051564;28;20033;-75
2023/09/29 07:20:16;;;;;;;48.38;10.23;;;;;;;24.28;63.37;100901.03;5051908;28;20599;-78
2023/09/29 07:22:42;;;;;;;41.83;9.35;;;;;;;24.39;63.21;100894.94;5052093;28;20021;-78
2023/09/29 07:25:07;;;;;;;25.38;8.10;;;;;;;24.62;61.81;100906.38;5051894;28;20592;-78
2023/09/29 07:27:33;;;;;;;47.00;9.00;;;;;;;24.64;61.32;100904.31;5051480;28;20032;-78
2023/09/29 07:29:58;;;;;;;28.92;6.82;;;;;;;24.56;61.18;100920.97;5051551;28;20033;-76
2023/09/29 07:32:26;;;;;;;17.70;8.27;;;;;;;24.57;61.54;100922.69;5051653;28;20025;-76
2023/09/29 07:34:51;;;;;;;54.45;13.13;;;;;;;24.56;61.64;100929.22;5051401;28;20041;-77
2023/09/29 07:37:17;;;;;;;56.78;12.18;;;;;;;24.52;61.74;100930.72;5051759;28;20028;-78
2023/09/29 07:39:42;;;;;;;41.20;9.63;;;;;;;24.51;61.54;100940.03;5015813;28;20103;-76
2023/09/29 07:42:09;;;;;;;30.63;11.35;;;;;;;24.59;61.25;100939.81;5050858;28;20067;-76
2023/09/29 07:44:35;;;;;;;31.13;9.98;;;;;;;24.64;61.65;100937.31;5051329;28;20149;-76
2023/09/29 07:47:00;;;;;;;46.00;10.48;;;;;;;24.62;61.09;100942.16;5051378;28;20481;-77
2023/09/29 07:49:26;;;;;;;34.63;8.43;;;;;;;24.71;60.49;100943.66;5051298;28;20500;-78
2023/09/29 07:51:52;;;;;;;57.47;12.05;;;;;;;24.73;60.47;100947.06;5051233;28;20033;-77
2023/09/29 07:54:20;;;;;;;31.70;10.50;;;;;;;24.85;60.07;100947.31;5050991;28;20473;-77
2023/09/29 07:56:49;;;;;;;42.03;9.75;;;;;;;24.85;59.48;100948.16;5015427;28;20045;-77
2023/09/29 07:59:15;;;;;;;34.45;9.55;;;;;;;24.84;59.36;100948.34;5050698;28;20035;-76
2023/09/29 08:01:42;;;;;;;56.58;12.40;;;;;;;24.88;59.30;100945.00;5050358;28;20111;-77
2023/09/29 08:04:08;;;;;;;50.17;11.70;;;;;;;24.99;58.56;100943.50;5051253;28;20025;-76
2023/09/29 08:06:35;;;;;;;42.42;10.35;;;;;;;25.08;58.39;100938.63;5051199;28;20528;-78
2023/09/29 08:09:01;;;;;;;38.33;8.05;;;;;;;25.14;58.18;100941.38;5050941;28;20064;-77
2023/09/29 08:11:26;;;;;;;29.08;9.27;;;;;;;25.17;57.85;100935.44;5050769;28;20056;-78
2023/09/29 08:13:53;;;;;;;31.40;7.25;;;;;;;25.33;57.04;100943.28;5051247;28;20029;-77
2023/09/29 08:16:20;;;;;;;24.23;8.88;;;;;;;25.38;56.30;100934.41;5051051;28;20104;-77
2023/09/29 08:18:45;;;;;;;19.33;7.60;;;;;;;25.42;56.21;100919.13;5050802;28;20048;-78
2023/09/29 08:21:11;;;;;;;29.23;8.15;;;;;;;25.71;56.34;100937.97;5050649;28;20018;-76
2023/09/29 08:23:37;;;;;;;24.52;7.22;;;;;;;25.83;54.96;100943.66;5050702;28;20032;-77
2023/09/29 08:26:04;;;;;;;31.25;8.43;;;;;;;26.01;55.30;100937.44;5050647;28;20036;-76
2023/09/29 08:28:29;;;;;;;24.33;7.72;;;;;;;26.05;54.07;100925.78;5050643;28;20029;-77
2023/09/29 08:30:54;;;;;;;31.08;7.00;;;;;;;26.22;53.72;100926.97;5050013;28;20099;-77
2023/09/29 08:33:20;;;;;;;26.63;6.88;;;;;;;26.28;53.53;100931.63;5050610;28;20041;-77
2023/09/29 08:35:45;;;;;;;23.42;7.78;;;;;;;26.38;53.40;100931.16;5050159;28;20496;-75
2023/09/29 08:38:11;;;;;;;30.17;8.02;;;;;;;26.48;52.87;100935.09;5050645;28;20455;-78
2023/09/29 08:40:39;;;;;;;36.15;7.45;;;;;;;26.56;52.63;100924.88;5050359;28;20028;-76
2023/09/29 08:43:06;;;;;;;38.03;8.45;;;;;;;26.52;52.41;100933.59;5050655;28;20056;-76
2023/09/29 08:45:32;;;;;;;50.97;9.07;;;;;;;26.51;52.00;100909.00;5049594;28;20029;-76
2023/09/29 08:47:59;;;;;;;25.90;6.45;;;;;;;26.68;51.79;100929.47;5050047;28;20074;-77
2023/09/29 08:50:25;;;;;;;33.78;8.52;;;;;;;26.57;50.06;100924.69;5050319;28;20029;-76
2023/09/29 08:52:52;;;;;;;27.05;6.53;;;;;;;26.35;50.41;100892.97;5049601;28;20029;-76
2023/09/29 08:55:19;;;;;;;34.25;6.80;;;;;;;26.47;50.91;100913.28;5050364;28;20020;-76
2023/09/29 08:57:45;;;;;;;32.00;8.20;;;;;;;26.65;51.14;100923.56;5049611;28;20058;-77
2023/09/29 09:00:15;;;;;;;24.70;7.20;;;;;;;26.64;50.88;100914.41;5049807;28;20107;-77
2023/09/29 09:02:42;;;;;;;22.58;6.00;;;;;;;26.60;50.75;100876.47;5049954;28;20155;-77
2023/09/29 09:05:12;;;;;;;23.30;7.13;;;;;;;26.94;50.81;100898.94;5049936;28;20029;-76
2023/09/29 09:07:41;;;;;;;33.63;7.70;;;;;;;27.16;49.79;100906.81;5050006;28;20028;-77
2023/09/29 09:10:09;;;;;;;30.95;11.23;;;;;;;27.31;49.85;100910.06;5049533;28;20087;-77
2023/09/29 09:12:36;;;;;;;46.92;9.75;;;;;;;27.52;51.53;100906.94;5049318;28;20693;-76
2023/09/29 09:15:05;;;;;;;28.70;7.32;;;;;;;27.65;52.96;100917.84;5049469;28;20017;-76
2023/09/29 09:17:32;;;;;;;52.55;9.52;;;;;;;27.78;53.54;100916.84;5049228;28;20040;-77
2023/09/29 09:19:57;;;;;;;29.67;7.10;;;;;;;27.79;53.57;100919.38;5049770;28;20397;-80
2023/09/29 09:22:31;;;;;;;27.52;7.97;;;;;;;27.56;53.61;100920.06;5049348;28;20024;-76
2023/09/29 09:25:01;;;;;;;22.50;6.75;;;;;;;27.58;50.02;100911.56;5049364;28;20499;-76
2023/09/29 09:27:37;;;;;;;41.45;7.47;;;;;;;27.73;48.72;100925.84;5049351;28;20033;-78
2023/09/29 09:30:03;;;;;;;62.17;9.63;;;;;;;27.81;48.03;100911.69;5049585;28;20496;-78
2023/09/29 09:32:28;;;;;;;34.55;8.60;;;;;;;27.92;50.02;100918.38;5049087;28;20032;-78
2023/09/29 09:34:54;;;;;;;22.77;6.78;;;;;;;27.90;46.84;100915.84;5049060;28;20698;-80
2023/09/29 09:37:27;;;;;;;37.75;6.55;;;;;;;27.93;45.83;100907.09;5049084;28;20489;-78
2023/09/29 09:39:55;;;;;;;21.48;6.35;;;;;;;28.23;45.75;100914.59;5048903;28;20350;-77
2023/09/29 09:42:24;;;;;;;39.38;7.05;;;;;;;28.33;49.30;100920.44;5049076;28;20057;-78
2023/09/29 09:44:50;;;;;;;26.20;9.95;;;;;;;28.41;50.86;100917.31;5049099;28;20053;-78
2023/09/29 09:47:18;;;;;;;33.55;10.00;;;;;;;28.57;51.90;100913.91;5049505;28;20186;-78
2023/09/29 09:49:48;;;;;;;38.58;8.35;;;;;;;28.06;52.65;100915.25;5049369;28;20021;-77
2023/09/29 09:52:30;;;;;;;29.10;7.82;;;;;;;27.61;54.73;100919.38;5049034;28;20029;-77
2023/09/29 09:55:13;;;;;;;34.40;9.38;;;;;;;27.61;54.38;100915.78;5031267;28;20079;-76
2023/09/29 09:57:43;;;;;;;39.78;8.50;;;;;;;27.89;53.17;100919.66;5049155;28;20071;-78
2023/09/29 10:00:10;;;;;;;21.27;7.85;;;;;;;27.96;52.81;100908.53;5049061;28;20115;-77
2023/09/29 10:03:03;;;;;;;29.02;8.10;;;;;;;28.17;51.82;100927.44;5049329;28;20517;-78
2023/09/29 10:05:32;;;;;;;35.10;7.85;;;;;;;28.20;51.68;100915.06;5052065;28;20378;-77
2023/09/29 10:08:02;;;;;;;23.30;7.65;;;;;;;27.82;53.07;100918.94;5053316;28;20111;-78
2023/09/29 10:10:31;;;;;;;30.58;9.65;;;;;;;27.80;53.49;100921.06;5053512;28;20048;-76
2023/09/29 10:12:58;;;;;;;37.38;9.63;;;;;;;27.77;52.35;100902.16;5053175;28;20591;-78
2023/09/29 10:15:29;;;;;;;29.38;7.70;;;;;;;28.02;52.22;100908.47;5053774;28;20036;-77
2023/09/29 10:18:01;;;;;;;22.33;7.43;;;;;;;28.03;51.40;100910.16;5053495;28;20029;-77
2023/09/29 10:20:31;;;;;;;26.48;7.45;;;;;;;28.14;50.81;100900.25;5053592;28;20090;-77
2023/09/29 10:23:08;;;;;;;43.97;10.60;;;;;;;28.38;50.57;100906.72;5053229;28;20074;-78
2023/09/29 10:25:38;;;;;;;31.08;8.30;;;;;;;28.06;50.72;100909.72;5052841;28;20029;-78
2023/09/29 10:28:06;;;;;;;39.42;9.20;;;;;;;27.63;51.24;100885.97;5017943;28;20033;-77
2023/09/29 10:30:33;;;;;;;38.63;7.68;;;;;;;27.44;51.92;100860.25;5052953;28;20036;-80
2023/09/29 10:33:05;;;;;;;24.98;8.07;;;;;;;27.58;52.44;100908.78;5035050;28;20139;-77
2023/09/29 10:35:33;;;;;;;48.90;9.18;;;;;;;27.38;52.07;100889.59;5052907;28;20059;-76
2023/09/29 10:38:11;;;;;;;31.48;9.02;;;;;;;27.45;52.70;100903.38;5052033;28;20040;-77
2023/09/29 10:40:36;;;;;;;36.25;9.85;;;;;;;27.65;52.50;100911.44;5052606;28;20033;-78
2023/09/29 10:43:02;;;;;;;26.30;8.45;;;;;;;27.76;52.50;100896.88;5034785;28;20060;-78
2023/09/29 10:45:36;;;;;;;39.08;8.10;;;;;;;27.94;52.75;100917.09;5052317;28;20104;-77
2023/09/29 10:48:06;;;;;;;27.02;8.00;;;;;;;27.73;52.64;100903.72;5052665;28;20024;-76
2023/09/29 10:50:42;;;;;;;23.98;7.35;;;;;;;27.52;53.26;100879.31;5052504;28;20068;-76
2023/09/29 10:53:07;;;;;;;36.38;9.23;;;;;;;27.41;54.06;100882.78;5052798;28;20025;-77
2023/09/29 10:55:42;;;;;;;31.00;9.88;;;;;;;27.42;55.53;100906.56;5052268;28;20025;-78
2023/09/29 10:58:10;;;;;;;29.60;10.60;;;;;;;27.29;57.08;100901.19;5052450;28;20075;-77
2023/09/29 11:00:48;;;;;;;55.90;12.18;;;;;;;27.01;58.29;100863.00;5052201;28;20473;-78
2023/09/29 11:03:20;;;;;;;27.58;9.93;;;;;;;26.96;59.65;100896.81;5051991;28;20487;-78
2023/09/29 11:05:54;;;;;;;21.83;9.23;;;;;;;26.58;61.82;100901.50;5052182;28;20036;-76
2023/09/29 11:08:27;;;;;;;27.77;8.18;;;;;;;26.55;62.87;100890.94;5052002;28;20263;-76
2023/09/29 11:11:02;;;;;;;35.85;10.50;;;;;;;26.76;62.11;100868.47;5052037;28;20115;-77
2023/09/29 11:13:29;;;;;;;33.40;8.98;;;;;;;27.11;62.82;100901.13;5051863;28;20025;-77
2023/09/29 11:15:56;;;;;;;33.70;10.15;;;;;;;27.14;62.33;100886.88;5051303;28;20029;-77